createdAt,value
2022-08-18T00:00:49.747Z,73.10
2022-08-18T00:05:48.650Z,52.00
2022-08-18T00:10:48.488Z,69.10
2022-08-18T00:15:49.024Z,61.20
2022-08-18T00:20:48.370Z,61.00
2022-08-18T00:25:48.321Z,58.80
2022-08-18T00:30:48.271Z,61.60
2022-08-18T00:35:49.209Z,62.50
2022-08-18T00:40:48.158Z,69.60
2022-08-18T00:45:48.180Z,66.30
2022-08-18T00:50:48.049Z,63.40
2022-08-18T00:55:54.259Z,65.60
2022-08-18T01:00:49.022Z,81.60
2022-08-18T01:05:48.047Z,81.30
2022-08-18T01:10:47.807Z,91.20
2022-08-18T01:15:49.845Z,89.90
2022-08-18T01:20:47.696Z,63.40
2022-08-18T01:25:47.667Z,63.30
2022-08-18T01:30:47.725Z,68.40
2022-08-18T01:35:47.669Z,60.60
2022-08-18T01:41:22.675Z,57.80
2022-08-18T01:45:48.448Z,71.20
2022-08-18T01:50:47.375Z,64.30
2022-08-18T01:55:47.315Z,73.30
2022-08-18T02:00:47.310Z,77.70
2022-08-18T02:05:47.608Z,63.90
2022-08-18T02:10:47.298Z,77.60
2022-08-18T02:15:47.118Z,91.20
2022-08-18T02:20:47.137Z,114.80
2022-08-18T02:26:57.377Z,68.90
2022-08-18T02:31:57.393Z,69.40
2022-08-18T02:36:57.241Z,73.50
2022-08-18T02:41:57.292Z,64.70
2022-08-18T02:46:57.209Z,121.20
2022-08-18T02:51:57.072Z,148.60
2022-08-18T02:56:57.008Z,61.70
2022-08-18T03:01:57.082Z,58.00
2022-08-18T03:06:57.089Z,63.80
2022-08-18T03:11:56.864Z,67.90
2022-08-18T03:16:56.807Z,87.00
2022-08-18T03:21:58.206Z,57.20
2022-08-18T03:26:56.751Z,62.20
2022-08-18T03:31:56.628Z,98.40
2022-08-18T03:36:56.592Z,65.10
2022-08-18T03:41:58.001Z,56.60
2022-08-18T03:46:56.474Z,58.30
2022-08-18T03:51:56.541Z,59.80
2022-08-18T03:56:56.459Z,68.30
2022-08-18T04:01:56.450Z,106.70
2022-08-18T04:06:56.262Z,94.20
2022-08-18T04:11:56.293Z,91.30
2022-08-18T04:16:56.153Z,95.60
2022-08-18T04:21:56.121Z,102.10
2022-08-18T04:26:56.040Z,119.80
2022-08-18T04:31:55.992Z,124.20
2022-08-18T04:36:55.952Z,138.00
2022-08-18T04:41:55.879Z,135.90
2022-08-18T04:46:55.820Z,181.10
2022-08-18T04:52:36.775Z,194.60
2022-08-18T04:56:56.724Z,212.90
2022-08-18T05:01:55.674Z,199.70
2022-08-18T05:06:55.603Z,172.10
2022-08-18T05:11:55.540Z,225.70
2022-08-18T05:16:55.599Z,242.80
2022-08-18T05:21:59.627Z,225.40
2022-08-18T05:26:56.377Z,221.40
2022-08-18T05:31:55.340Z,210.20
2022-08-18T05:36:55.359Z,169.30
2022-08-18T05:41:55.218Z,184.30
2022-08-18T05:46:55.173Z,181.00
2022-08-18T05:51:55.417Z,173.30
2022-08-18T05:56:55.357Z,182.80
2022-08-18T06:01:55.197Z,167.30
2022-08-18T06:06:56.129Z,147.60
2022-08-18T06:11:55.081Z,133.00
2022-08-18T06:16:55.978Z,142.50
2022-08-18T06:21:54.847Z,140.70
2022-08-18T06:26:54.828Z,145.90
2022-08-18T06:31:54.762Z,130.20
2022-08-18T06:36:54.708Z,129.30
2022-08-18T06:41:54.711Z,135.30
2022-08-18T06:46:54.701Z,131.60
2022-08-18T06:51:54.549Z,117.20
2022-08-18T06:56:54.533Z,133.90
2022-08-18T07:01:55.397Z,121.90
2022-08-18T07:06:54.341Z,133.50
2022-08-18T07:11:54.344Z,139.40
2022-08-18T07:16:58.821Z,134.80
2022-08-18T07:21:55.153Z,142.40
2022-08-18T07:26:54.150Z,145.30
2022-08-18T07:31:54.118Z,128.90
2022-08-18T07:36:54.000Z,136.50
2022-08-18T07:41:53.959Z,139.90
2022-08-18T07:46:53.898Z,140.80
2022-08-18T07:51:53.857Z,136.50
2022-08-18T07:56:53.796Z,123.60
2022-08-18T08:01:53.956Z,130.50
2022-08-18T08:07:20.727Z,118.20
2022-08-18T08:11:54.628Z,114.60
2022-08-18T08:16:53.578Z,110.10
2022-08-18T08:21:53.493Z,104.90
2022-08-18T08:26:53.439Z,87.70
2022-08-18T08:31:53.385Z,77.80
2022-08-18T08:36:53.341Z,68.10
2022-08-18T08:41:53.272Z,60.70
2022-08-18T08:46:54.233Z,61.20
2022-08-18T08:51:53.177Z,60.50
2022-08-18T08:57:01.956Z,55.60
2022-08-18T09:01:53.090Z,53.10
2022-08-18T09:06:52.996Z,54.10
2022-08-18T09:11:52.940Z,52.20
2022-08-18T09:16:52.901Z,48.50
2022-08-18T09:21:52.831Z,47.50
2022-08-18T09:26:52.785Z,48.00
2022-08-18T09:31:52.745Z,46.90
2022-08-18T09:36:52.683Z,44.80
2022-08-18T09:41:52.637Z,45.40
2022-08-18T09:46:52.646Z,45.80
2022-08-18T09:51:52.567Z,56.70
2022-08-18T09:56:53.493Z,55.50
2022-08-18T10:01:52.863Z,57.80
2022-08-18T10:06:52.370Z,51.10
2022-08-18T10:11:52.408Z,52.90
2022-08-18T10:17:15.908Z,50.60
2022-08-18T10:21:53.723Z,51.30
2022-08-18T10:26:55.011Z,47.50
2022-08-18T10:31:54.178Z,53.30
2022-08-18T10:36:52.058Z,54.40
2022-08-18T10:41:54.229Z,55.10
2022-08-18T10:46:51.957Z,52.90
2022-08-18T10:51:59.615Z,47.10
2022-08-18T10:56:52.857Z,45.40
2022-08-18T11:01:51.802Z,49.10
2022-08-18T11:06:51.751Z,42.30
2022-08-18T11:11:55.842Z,47.90
2022-08-18T11:16:54.062Z,47.10
2022-08-18T11:21:52.054Z,46.90
2022-08-18T11:26:53.185Z,47.30
2022-08-18T11:31:52.525Z,43.20
2022-08-18T11:36:51.523Z,47.80
2022-08-18T11:41:51.490Z,42.00
2022-08-18T11:46:52.077Z,45.30
2022-08-18T11:51:51.291Z,40.10
2022-08-18T11:56:51.230Z,42.00
2022-08-18T12:01:51.352Z,39.60
2022-08-18T12:06:51.134Z,36.20
2022-08-18T12:11:51.085Z,37.30
2022-08-18T12:16:51.014Z,40.60
2022-08-18T12:21:50.977Z,40.50
2022-08-18T12:31:51.855Z,44.20
2022-08-18T12:36:50.886Z,42.80
2022-08-18T12:41:50.768Z,35.60
2022-08-18T12:46:50.787Z,35.50
2022-08-18T12:51:50.756Z,31.60
2022-08-18T12:56:50.681Z,27.30
2022-08-18T13:01:50.542Z,23.30
2022-08-18T13:07:00.457Z,20.90
2022-08-18T13:11:51.454Z,23.40
2022-08-18T13:16:54.047Z,28.20
2022-08-18T13:21:50.347Z,24.30
2022-08-18T13:26:51.655Z,21.50
2022-08-18T13:31:55.798Z,21.60
2022-08-18T13:36:51.416Z,20.10
2022-08-18T13:41:50.214Z,21.40
2022-08-18T13:46:50.101Z,18.30
2022-08-18T13:51:50.083Z,18.60
2022-08-18T13:56:51.643Z,23.80
2022-08-18T14:01:52.426Z,22.50
2022-08-18T14:06:56.247Z,16.40
2022-08-18T14:11:51.178Z,15.00
2022-08-18T14:16:50.791Z,16.00
2022-08-18T14:21:49.792Z,14.00
2022-08-18T14:26:50.030Z,14.30
2022-08-18T14:31:49.746Z,13.40
2022-08-18T14:36:49.653Z,14.20
2022-08-18T14:41:55.929Z,17.00
2022-08-18T14:46:54.031Z,12.70
2022-08-18T14:51:49.466Z,12.00
2022-08-18T14:56:49.417Z,11.40
2022-08-18T15:01:58.219Z,12.30
2022-08-18T15:06:55.763Z,10.50
2022-08-18T15:11:50.358Z,10.80
2022-08-18T15:16:49.290Z,10.50
2022-08-18T15:21:50.326Z,10.40
2022-08-18T15:26:51.569Z,11.20
2022-08-18T15:31:49.932Z,10.60
2022-08-18T15:36:49.101Z,11.60
2022-08-18T15:41:49.014Z,10.80
2022-08-18T15:46:53.002Z,10.00
2022-08-18T15:51:48.881Z,10.60
2022-08-18T15:56:58.236Z,10.40
2022-08-18T16:01:50.202Z,8.60
2022-08-18T16:06:48.811Z,9.30
2022-08-18T16:11:48.656Z,7.90
2022-08-18T16:16:48.598Z,8.80
2022-08-18T16:21:48.561Z,11.40
2022-08-18T16:26:48.516Z,7.00
2022-08-18T16:31:48.504Z,9.40
2022-08-18T16:36:48.529Z,7.90
2022-08-18T16:41:48.346Z,7.80
2022-08-18T16:46:48.289Z,8.00
2022-08-18T16:51:48.433Z,8.60
2022-08-18T16:56:48.197Z,8.90
2022-08-18T17:01:49.431Z,9.00
2022-08-18T17:06:48.186Z,7.30
2022-08-18T17:11:51.440Z,11.10
2022-08-18T17:16:48.007Z,8.70
2022-08-18T17:21:47.967Z,8.10
2022-08-18T17:26:49.490Z,7.80
2022-08-18T17:31:47.814Z,7.90
2022-08-18T17:36:52.617Z,7.20
2022-08-18T17:41:48.716Z,7.20
2022-08-18T17:46:47.646Z,8.50
2022-08-18T17:51:52.501Z,7.50
2022-08-18T17:56:48.535Z,10.80
2022-08-18T18:01:47.507Z,8.40
2022-08-18T18:06:49.391Z,8.40
2022-08-18T18:11:47.590Z,8.60
2022-08-18T18:16:47.542Z,8.40
2022-08-18T18:21:58.873Z,10.80
2022-08-18T18:26:48.324Z,8.20
2022-08-18T18:31:47.175Z,11.60
2022-08-18T18:36:47.135Z,10.30
2022-08-18T18:41:47.064Z,10.00
2022-08-18T18:46:47.020Z,8.90
2022-08-18T18:51:47.019Z,10.60
2022-08-18T18:56:46.897Z,9.80
2022-08-18T19:01:46.936Z,11.60
2022-08-18T19:06:46.915Z,8.00
2022-08-18T19:11:46.873Z,8.70
2022-08-18T19:16:46.811Z,9.30
2022-08-18T19:22:03.430Z,7.70
2022-08-18T19:26:47.571Z,9.90
2022-08-18T19:31:46.533Z,11.00
2022-08-18T19:36:46.460Z,10.00
2022-08-18T19:41:46.418Z,11.10
2022-08-18T19:46:46.360Z,10.20
2022-08-18T19:51:46.399Z,9.10
2022-08-18T19:56:46.324Z,8.90
2022-08-18T20:01:46.213Z,9.00
2022-08-18T20:06:46.329Z,9.60
2022-08-18T20:11:46.256Z,11.70
2022-08-18T20:16:46.196Z,12.20
2022-08-18T20:21:45.980Z,9.60
2022-08-18T20:26:45.937Z,10.10
2022-08-18T20:31:45.873Z,9.00
2022-08-18T20:36:45.811Z,11.90
2022-08-18T20:41:45.775Z,10.80
2022-08-18T20:46:45.717Z,9.10
2022-08-18T20:51:52.393Z,11.00
2022-08-18T20:56:46.730Z,11.10
2022-08-18T21:01:45.658Z,10.00
2022-08-18T21:06:45.529Z,11.00
2022-08-18T21:11:45.525Z,10.40
2022-08-18T21:16:45.468Z,12.40
2022-08-18T21:21:52.394Z,13.30
2022-08-18T21:26:45.280Z,8.50
2022-08-18T21:31:45.485Z,9.60
2022-08-18T21:36:45.207Z,10.20
2022-08-18T21:41:45.117Z,14.80
2022-08-18T21:46:45.052Z,10.60
2022-08-18T21:51:44.997Z,13.60
2022-08-18T21:56:44.955Z,12.00
2022-08-18T22:01:44.889Z,16.20
2022-08-18T22:06:44.837Z,12.10
2022-08-18T22:12:00.623Z,12.30
2022-08-18T22:16:45.754Z,13.50
2022-08-18T22:21:45.724Z,11.90
2022-08-18T22:26:44.745Z,12.20
2022-08-18T22:31:44.705Z,15.70
2022-08-18T22:36:44.503Z,11.00
2022-08-18T22:41:44.455Z,12.10
2022-08-18T22:46:44.496Z,11.60
2022-08-18T22:51:44.358Z,12.40
2022-08-18T22:56:55.177Z,12.90
2022-08-18T23:01:45.379Z,12.20
2022-08-18T23:06:45.311Z,15.70
2022-08-18T23:11:44.128Z,13.00
2022-08-18T23:16:44.065Z,11.50
2022-08-18T23:21:44.028Z,14.80
2022-08-18T23:26:43.981Z,12.60
2022-08-18T23:31:43.918Z,12.70
2022-08-18T23:36:46.035Z,12.30
2022-08-18T23:41:43.798Z,13.90
2022-08-18T23:46:43.748Z,11.00
2022-08-18T23:51:43.838Z,12.30
2022-08-18T23:56:43.766Z,14.10
